Time;durP1;ratioP1;P1;durP2;ratioP2;P2;SDS_P1;SDS_P2;PMS_P1;PMS_P2;Temp;Humidity;BMP_temperature;BMP_pressure;BME280_temperature;BME280_humidity;BME280_pressure;Samples;Min_cycle;Max_cycle;Signal;HPM_P1;HPM_P2
2021/03/30 00:01:59;;;;;;;4.55;2.83;;;;;;;9.65;70.48;99743.25;3984620;72;44075;-23
2021/03/30 00:07:06;;;;;;;6.22;2.92;;;;;;;9.60;70.46;99744.09;4021224;72;43685;-23
2021/03/30 00:12:13;;;;;;;5.75;2.67;;;;;;;9.54;70.66;99740.94;3872102;74;44157;-23
2021/03/30 00:17:19;;;;;;;6.05;2.72;;;;;;;9.53;70.66;99744.59;4019505;71;42925;-24
2021/03/30 00:22:25;;;;;;;4.22;3.10;;;;;;;9.47;70.75;99732.96;4034929;71;43766;-23
2021/03/30 00:27:31;;;;;;;5.10;2.60;;;;;;;9.46;70.91;99743.38;4007131;71;43439;-23
2021/03/30 00:32:39;;;;;;;9.13;2.87;;;;;;;9.44;70.94;99739.95;3995206;72;43696;-26
2021/03/30 00:37:45;;;;;;;4.03;2.52;;;;;;;9.39;71.20;99740.80;4023698;72;44232;-26
2021/03/30 00:42:54;;;;;;;4.58;2.62;;;;;;;9.32;71.49;99735.55;4023531;72;43230;-26
2021/03/30 00:48:00;;;;;;;4.25;2.90;;;;;;;9.30;71.14;99733.45;4027476;72;43491;-26
2021/03/30 00:53:07;;;;;;;4.70;2.60;;;;;;;9.30;71.18;99730.77;4050552;72;44027;-26
2021/03/30 00:58:30;;;;;;;4.22;2.67;;;;;;;9.28;71.21;99738.09;3974173;72;26303;-26
2021/03/30 01:03:36;;;;;;;6.20;2.42;;;;;;;9.18;71.53;99741.51;4058389;72;44076;-27
2021/03/30 01:08:50;;;;;;;4.50;2.65;;;;;;;9.07;72.21;99737.45;4051231;70;43677;-27
2021/03/30 01:14:07;;;;;;;5.87;2.50;;;;;;;8.94;73.14;99740.22;3970873;72;43717;-26
2021/03/30 01:19:20;;;;;;;5.40;2.52;;;;;;;8.82;73.62;99737.16;3972619;71;43669;-26
2021/03/30 01:24:30;;;;;;;4.83;2.50;;;;;;;8.77;73.95;99732.11;3999726;72;43710;-26
2021/03/30 01:29:52;;;;;;;4.95;2.47;;;;;;;8.73;74.16;99742.24;3988241;72;44250;-26
2021/03/30 01:35:00;;;;;;;4.40;2.58;;;;;;;8.64;74.67;99741.61;3992447;72;43293;-27
2021/03/30 01:40:09;;;;;;;4.12;2.72;;;;;;;8.57;74.87;99745.24;3964485;72;44624;-27
2021/03/30 01:45:18;;;;;;;7.22;2.75;;;;;;;8.43;75.90;99738.20;4024206;72;43357;-25
2021/03/30 01:50:24;;;;;;;5.28;2.60;;;;;;;8.37;76.25;99729.74;4005785;72;43415;-26
2021/03/30 01:55:31;;;;;;;6.17;2.70;;;;;;;8.38;76.35;99736.83;4000805;72;43484;-26
2021/03/30 02:00:39;;;;;;;5.50;2.50;;;;;;;8.30;76.53;99728.00;4004282;72;43991;-26
2021/03/30 02:05:46;;;;;;;4.20;2.60;;;;;;;8.21;77.46;99728.69;3976924;72;44490;-26
2021/03/30 02:10:56;;;;;;;8.43;2.85;;;;;;;8.16;77.67;99733.06;3971217;70;43981;-26
2021/03/30 02:16:06;;;;;;;5.40;2.80;;;;;;;8.11;78.11;99729.38;3977881;72;44403;-26
2021/03/30 02:21:14;;;;;;;5.62;2.80;;;;;;;8.10;77.99;99732.16;4004023;71;44696;-26
2021/03/30 02:26:21;;;;;;;4.45;2.30;;;;;;;8.05;78.31;99738.36;4046742;71;44046;-26
2021/03/30 02:31:31;;;;;;;4.87;2.70;;;;;;;8.04;78.37;99738.83;4045538;71;44248;-26
2021/03/30 02:36:38;;;;;;;6.12;2.83;;;;;;;8.09;77.58;99737.15;4038353;71;44128;-26
2021/03/30 02:41:45;;;;;;;5.00;2.80;;;;;;;8.08;77.37;99741.67;4017063;71;43408;-26
2021/03/30 02:46:53;;;;;;;5.67;2.92;;;;;;;8.05;77.71;99739.70;3976339;72;44039;-26
2021/03/30 02:52:00;;;;;;;5.30;3.70;;;;;;;7.93;78.75;99739.64;3968897;72;44678;-26
2021/03/30 02:57:09;;;;;;;5.03;3.00;;;;;;;7.84;79.37;99741.16;3963699;72;43295;-26
2021/03/30 03:02:16;;;;;;;6.40;2.85;;;;;;;7.75;79.92;99743.17;4030624;72;43376;-26
2021/03/30 03:07:22;;;;;;;4.95;3.30;;;;;;;7.68;80.57;99748.12;4064184;72;44041;-26
2021/03/30 03:12:29;;;;;;;6.58;2.83;;;;;;;7.62;80.85;99742.33;4055208;71;44156;-26
2021/03/30 03:17:37;;;;;;;6.95;3.00;;;;;;;7.54;81.40;99743.72;4025474;71;43115;-26
2021/03/30 03:22:43;;;;;;;5.05;2.98;;;;;;;7.52;81.68;99739.44;4056851;71;44046;-26
2021/03/30 03:27:49;;;;;;;6.95;2.80;;;;;;;7.50;81.61;99744.05;3992706;72;43414;-26
2021/03/30 03:32:57;;;;;;;5.47;3.00;;;;;;;7.50;81.56;99753.43;3986510;71;43722;-23
2021/03/30 03:38:05;;;;;;;5.58;3.12;;;;;;;7.47;81.65;99750.50;4008466;72;43014;-22
2021/03/30 03:43:12;;;;;;;7.00;3.22;;;;;;;7.38;82.03;99753.83;3992174;72;43255;-20
2021/03/30 03:48:18;;;;;;;6.85;3.17;;;;;;;7.29;83.03;99758.00;4028149;72;43339;-21
2021/03/30 03:53:27;;;;;;;6.17;3.25;;;;;;;7.19;83.84;99759.13;4028505;72;43709;-21
2021/03/30 03:58:36;;;;;;;4.87;3.02;;;;;;;7.18;83.76;99759.23;4017453;70;43688;-21
2021/03/30 04:03:46;;;;;;;5.80;3.30;;;;;;;7.12;84.38;99769.03;4059070;70;43705;-21
2021/03/30 04:08:54;;;;;;;8.33;3.45;;;;;;;7.04;84.47;99766.41;4012934;70;44387;-21
2021/03/30 04:14:01;;;;;;;6.40;3.00;;;;;;;6.94;85.45;99765.32;4067669;71;43723;-21
2021/03/30 04:19:11;;;;;;;6.00;3.08;;;;;;;6.89;86.12;99763.42;4038221;71;43724;-21
2021/03/30 04:24:17;;;;;;;4.60;3.17;;;;;;;6.87;86.19;99771.58;4065522;70;65262;-21
2021/03/30 04:29:23;;;;;;;5.33;3.47;;;;;;;6.82;86.28;99772.36;4027213;71;69034;-21
2021/03/30 04:34:30;;;;;;;4.87;2.90;;;;;;;6.79;86.82;99773.44;3997411;72;43440;-21
2021/03/30 04:39:36;;;;;;;4.20;2.92;;;;;;;6.74;87.21;99780.06;3999527;72;44620;-22
2021/03/30 04:44:42;;;;;;;6.87;2.95;;;;;;;6.67;87.44;99778.77;4047662;72;44081;-22
2021/03/30 04:49:51;;;;;;;6.12;3.50;;;;;;;6.66;87.94;99785.93;3965044;72;42781;-23
2021/03/30 04:54:57;;;;;;;7.40;2.85;;;;;;;6.65;88.14;99789.56;4006935;72;44066;-20
2021/03/30 05:00:05;;;;;;;4.85;3.02;;;;;;;6.63;88.37;99794.19;4020802;72;44016;-22
2021/03/30 05:05:12;;;;;;;5.00;2.90;;;;;;;6.55;88.57;99798.72;4039803;72;43475;-20
2021/03/30 05:10:19;;;;;;;7.35;3.70;;;;;;;6.45;89.26;99802.47;4057261;71;44598;-21
2021/03/30 05:15:25;;;;;;;5.97;3.30;;;;;;;6.38;90.39;99801.16;4013285;72;43995;-21
2021/03/30 05:20:31;;;;;;;5.40;3.73;;;;;;;6.32;91.38;99808.23;3961775;73;43669;-21
2021/03/30 05:25:37;;;;;;;6.78;3.30;;;;;;;6.28;91.71;99817.45;3996510;72;44077;-21
2021/03/30 05:30:44;;;;;;;6.83;3.50;;;;;;;6.27;91.94;99823.76;4037681;71;44051;-21
2021/03/30 05:35:51;;;;;;;6.35;3.30;;;;;;;6.33;91.55;99834.05;4014606;72;45640;-21
2021/03/30 05:40:57;;;;;;;6.65;3.70;;;;;;;6.31;92.14;99829.27;4011870;71;43458;-21
2021/03/30 05:46:04;;;;;;;4.40;3.45;;;;;;;6.27;92.55;99838.48;3990177;71;44000;-21
2021/03/30 05:51:11;;;;;;;4.00;3.10;;;;;;;6.19;93.29;99840.77;4039992;72;44474;-21
2021/03/30 05:56:19;;;;;;;6.17;3.40;;;;;;;6.17;93.88;99847.56;3988542;72;43696;-21
2021/03/30 06:01:27;;;;;;;6.28;3.37;;;;;;;6.19;94.10;99844.78;3941951;73;44148;-21
2021/03/30 06:06:34;;;;;;;4.50;3.05;;;;;;;6.23;96.42;99848.98;4014946;70;44469;-21
2021/03/30 06:11:41;;;;;;;6.10;3.70;;;;;;;6.28;95.97;99850.41;4056220;70;44155;-22
2021/03/30 06:16:49;;;;;;;7.92;3.90;;;;;;;6.44;94.62;99855.63;3981801;72;43691;-23
2021/03/30 06:22:02;;;;;;;6.65;3.83;;;;;;;6.50;94.88;99850.36;3995179;72;44046;-23
2021/03/30 06:27:26;;;;;;;9.00;3.37;;;;;;;6.60;95.34;99855.48;3975885;72;44071;-23
2021/03/30 06:32:34;;;;;;;6.67;3.70;;;;;;;6.63;95.80;99861.98;4034424;72;43675;-23
2021/03/30 06:37:41;;;;;;;6.33;4.50;;;;;;;6.69;95.90;99866.58;3990116;72;43671;-22
2021/03/30 06:42:51;;;;;;;4.50;3.27;;;;;;;6.80;95.31;99864.05;4025072;71;43539;-22
2021/03/30 06:48:01;;;;;;;8.08;4.37;;;;;;;6.92;94.82;99866.38;4010247;71;26347;-22
2021/03/30 06:53:17;;;;;;;8.48;4.08;;;;;;;7.04;94.17;99869.58;4005573;70;44050;-24
2021/03/30 06:58:23;;;;;;;7.08;3.80;;;;;;;7.15;93.51;99869.33;3940916;73;43670;-22
2021/03/30 07:03:31;;;;;;;8.43;4.10;;;;;;;7.31;93.44;99871.37;3986515;72;44498;-22
2021/03/30 07:08:37;;;;;;;7.95;4.10;;;;;;;7.49;96.01;99866.56;4002793;72;44045;-23
2021/03/30 07:13:43;;;;;;;6.33;3.45;;;;;;;7.61;94.39;99868.86;4034276;72;44100;-23
2021/03/30 07:18:51;;;;;;;5.53;3.65;;;;;;;7.89;93.25;99875.45;4015434;71;44061;-22
2021/03/30 07:24:01;;;;;;;6.47;3.40;;;;;;;8.16;92.08;99879.37;4049969;72;43713;-23
2021/03/30 07:29:09;;;;;;;8.10;3.75;;;;;;;8.43;89.46;99876.98;4059832;71;44049;-23
2021/03/30 07:34:18;;;;;;;5.33;3.20;;;;;;;8.82;84.43;99875.06;4023506;71;44204;-23
2021/03/30 07:39:27;;;;;;;5.30;3.30;;;;;;;9.12;83.03;99875.56;4072498;71;43352;-23
2021/03/30 07:44:34;;;;;;;8.00;3.47;;;;;;;9.21;82.11;99873.05;4043508;71;43454;-23
2021/03/30 07:49:47;;;;;;;6.10;3.45;;;;;;;9.49;81.36;99874.10;4066083;71;43244;-23
2021/03/30 07:55:17;;;;;;;4.50;3.22;;;;;;;9.73;78.97;99872.67;4010925;71;43436;-23
2021/03/30 08:00:46;;;;;;;6.30;3.60;;;;;;;9.89;80.09;99874.16;4062051;70;43679;-23
2021/03/30 08:06:14;;;;;;;5.97;3.27;;;;;;;10.30;77.02;99876.25;4065312;71;44751;-23
2021/03/30 08:11:57;;;;;;;6.58;3.40;;;;;;;10.43;77.71;99886.91;3979338;72;43999;-23
2021/03/30 08:17:04;;;;;;;5.83;3.45;;;;;;;10.76;75.69;99879.73;3952135;72;43671;-23
2021/03/30 08:22:12;;;;;;;6.28;3.40;;;;;;;10.97;75.95;99884.84;4054402;71;27351;-25
2021/03/30 08:27:40;;;;;;;6.95;3.40;;;;;;;11.32;73.28;99891.33;4032684;70;43717;-25
2021/03/30 08:32:48;;;;;;;7.37;3.55;;;;;;;11.52;71.07;99897.73;4066172;71;43688;-25
2021/03/30 08:37:54;;;;;;;8.65;3.50;;;;;;;11.78;71.28;99889.72;4007852;72;44092;-23
2021/03/30 08:43:01;;;;;;;10.08;3.87;;;;;;;12.13;69.35;99892.56;4007893;71;44436;-23
2021/03/30 08:48:13;;;;;;;9.30;3.62;;;;;;;12.40;66.10;99887.06;3962691;72;43126;-23
2021/03/30 08:53:22;;;;;;;6.58;3.85;;;;;;;12.58;66.98;99888.62;4040114;72;43458;-23
2021/03/30 08:58:30;;;;;;;6.87;4.72;;;;;;;12.88;65.42;99882.25;4041501;70;43362;-23
2021/03/30 09:03:37;;;;;;;7.08;3.47;;;;;;;13.16;64.89;99887.00;4083023;70;43436;-24
2021/03/30 09:08:44;;;;;;;8.15;3.90;;;;;;;13.46;63.13;99887.86;4004507;72;43449;-24
2021/03/30 09:14:01;;;;;;;8.00;4.42;;;;;;;13.69;58.60;99889.25;4038978;71;43519;-23
2021/03/30 09:19:20;;;;;;;8.98;4.30;;;;;;;14.04;57.29;99884.19;4056957;71;43124;-23
2021/03/30 09:30:03;;;;;;;7.12;3.90;;;;;;;14.59;53.91;99879.80;3983630;72;44197;-23
2021/03/30 09:35:13;;;;;;;11.30;4.85;;;;;;;14.83;56.92;99871.10;4023499;72;43381;-23
2021/03/30 09:40:22;;;;;;;9.73;5.40;;;;;;;15.15;55.07;99858.89;3955582;73;43681;-24
2021/03/30 09:45:30;;;;;;;11.40;6.53;;;;;;;15.42;51.12;99858.41;4013234;72;44078;-24
2021/03/30 09:50:42;;;;;;;9.80;5.37;;;;;;;15.59;51.86;99849.05;4034848;70;43708;-24
2021/03/30 09:55:48;;;;;;;9.58;5.75;;;;;;;15.77;52.84;99853.08;3953143;72;44019;-25
2021/03/30 10:00:56;;;;;;;10.98;6.03;;;;;;;15.83;50.66;99850.57;4055985;70;43384;-23
2021/03/30 10:06:02;;;;;;;11.50;6.45;;;;;;;16.02;52.57;99838.66;3974094;72;44472;-23
2021/03/30 10:11:08;;;;;;;13.78;7.25;;;;;;;16.33;52.23;99833.19;3991380;72;44071;-24
2021/03/30 10:16:15;;;;;;;11.80;6.90;;;;;;;16.58;47.51;99838.72;3988148;72;43383;-24
2021/03/30 10:21:22;;;;;;;13.13;7.10;;;;;;;16.51;47.29;99839.88;4012619;70;44014;-22
2021/03/30 10:26:29;;;;;;;12.82;7.15;;;;;;;16.57;49.31;99839.73;4006351;71;43726;-23
2021/03/30 10:31:41;;;;;;;14.15;7.25;;;;;;;17.05;47.94;99835.41;4020938;72;44505;-23
2021/03/30 10:36:45;;;;;;;16.17;7.60;;;;;;;17.13;46.82;99825.56;4010447;71;43577;-23
2021/03/30 10:41:53;;;;;;;12.15;7.40;;;;;;;17.35;47.41;99830.33;3990106;71;44670;-23
2021/03/30 10:46:59;;;;;;;15.58;7.60;;;;;;;17.42;46.45;99819.60;4018365;71;43211;-23
2021/03/30 10:52:10;;;;;;;14.03;8.13;;;;;;;17.74;46.06;99819.73;3990582;72;44022;-23
2021/03/30 10:57:15;;;;;;;14.63;8.00;;;;;;;17.84;44.28;99818.50;3986950;72;44033;-23
2021/03/30 11:02:22;;;;;;;14.15;8.25;;;;;;;17.90;43.73;99807.94;3985872;72;43299;-24
2021/03/30 11:07:28;;;;;;;13.95;8.65;;;;;;;17.98;43.82;99802.48;4038248;72;43673;-23
2021/03/30 11:12:35;;;;;;;13.22;8.83;;;;;;;17.95;40.45;99802.29;4053849;71;43996;-23
2021/03/30 11:17:41;;;;;;;14.30;8.25;;;;;;;17.99;41.31;99789.18;4049394;71;43365;-23
2021/03/30 11:22:49;;;;;;;13.30;8.50;;;;;;;18.16;41.67;99788.11;4009898;71;43354;-23
2021/03/30 11:28:02;;;;;;;12.33;7.90;;;;;;;18.24;40.16;99782.27;4016608;72;44398;-23
2021/03/30 11:33:08;;;;;;;12.93;7.58;;;;;;;18.40;40.23;99778.59;4050760;72;43689;-23
2021/03/30 11:38:13;;;;;;;14.13;7.67;;;;;;;18.60;37.75;99768.08;4024291;71;44473;-24
2021/03/30 11:43:19;;;;;;;12.95;7.35;;;;;;;18.80;38.69;99764.37;4054002;71;43765;-24
2021/03/30 11:48:26;;;;;;;11.68;7.65;;;;;;;18.90;38.51;99765.47;4042368;72;43718;-23
2021/03/30 11:53:35;;;;;;;14.07;7.50;;;;;;;18.91;36.96;99754.88;4074597;72;44043;-24
2021/03/30 11:58:40;;;;;;;12.47;7.17;;;;;;;19.05;37.65;99758.22;3944996;73;44762;-24
2021/03/30 12:03:46;;;;;;;9.03;6.35;;;;;;;19.07;37.54;99747.95;3920155;73;43104;-24
2021/03/30 12:08:52;;;;;;;14.35;7.37;;;;;;;19.31;37.16;99745.17;3997630;72;43673;-24
2021/03/30 12:13:59;;;;;;;12.65;7.35;;;;;;;19.30;37.16;99736.13;3984434;72;43721;-24
2021/03/30 12:19:05;;;;;;;10.35;6.40;;;;;;;19.56;36.11;99738.95;3968301;73;43424;-24
2021/03/30 12:24:13;;;;;;;11.05;6.78;;;;;;;19.79;34.12;99724.34;3970391;72;44120;-25
2021/03/30 12:29:19;;;;;;;11.20;7.00;;;;;;;20.00;35.94;99727.67;4052044;71;44179;-25
2021/03/30 12:34:25;;;;;;;12.07;6.83;;;;;;;20.05;34.74;99723.86;3991139;72;43287;-26
2021/03/30 12:39:32;;;;;;;12.90;6.60;;;;;;;20.08;31.55;99721.25;3998068;72;43301;-26
2021/03/30 12:44:38;;;;;;;11.45;7.03;;;;;;;20.33;35.17;99706.19;4062253;72;42758;-26
2021/03/30 12:49:44;;;;;;;8.85;6.28;;;;;;;20.52;32.93;99706.58;4034101;71;43419;-24
2021/03/30 12:54:51;;;;;;;11.68;6.90;;;;;;;20.64;31.48;99702.28;4025358;71;44017;-25
2021/03/30 12:59:57;;;;;;;9.98;7.03;;;;;;;20.88;29.90;99700.22;4001810;71;44012;-24
2021/03/30 13:05:04;;;;;;;9.38;6.37;;;;;;;20.99;30.37;99694.73;4064140;71;44037;-24
2021/03/30 13:10:12;;;;;;;11.00;6.90;;;;;;;21.14;32.02;99685.58;4029133;71;43428;-24
2021/03/30 13:15:18;;;;;;;11.03;6.30;;;;;;;21.38;31.12;99680.15;4032478;71;44068;-24
2021/03/30 13:20:24;;;;;;;10.10;6.10;;;;;;;21.55;30.71;99667.82;3989517;71;44422;-24
2021/03/30 13:25:33;;;;;;;10.78;6.33;;;;;;;21.69;31.22;99674.24;3985740;71;44122;-24
2021/03/30 13:30:43;;;;;;;8.48;5.87;;;;;;;21.70;28.61;99665.48;4046747;71;43020;-24
2021/03/30 13:35:51;;;;;;;9.18;6.10;;;;;;;21.69;29.41;99655.05;4036103;71;43334;-24
2021/03/30 13:40:57;;;;;;;8.68;5.03;;;;;;;21.83;29.06;99644.13;4058403;71;43722;-24
2021/03/30 13:46:05;;;;;;;9.10;5.10;;;;;;;21.98;26.09;99646.71;4015722;71;42730;-23
2021/03/30 13:51:11;;;;;;;7.22;4.45;;;;;;;21.83;27.03;99638.65;4034417;71;44119;-23
2021/03/30 13:56:17;;;;;;;5.80;3.70;;;;;;;22.03;26.19;99622.77;4046770;71;44055;-23
2021/03/30 14:01:23;;;;;;;7.95;4.03;;;;;;;22.06;27.52;99618.24;4064284;72;43714;-23
2021/03/30 14:06:29;;;;;;;5.42;3.55;;;;;;;22.13;24.55;99623.21;4028210;71;44161;-23
2021/03/30 14:11:36;;;;;;;5.60;3.92;;;;;;;22.22;23.61;99629.36;4029501;70;44030;-25
2021/03/30 14:16:53;;;;;;;9.75;3.70;;;;;;;22.22;23.89;99618.38;4043395;71;42999;-24
2021/03/30 14:22:00;;;;;;;5.72;3.80;;;;;;;22.06;23.69;99601.23;3999541;71;43693;-24
2021/03/30 14:27:06;;;;;;;6.28;4.33;;;;;;;22.44;23.76;99607.56;3991584;72;42866;-25
2021/03/30 14:32:15;;;;;;;7.97;4.30;;;;;;;22.60;26.12;99597.23;4000103;72;43187;-24
2021/03/30 14:37:24;;;;;;;7.55;3.35;;;;;;;22.61;25.49;99597.00;4072581;71;43405;-24
2021/03/30 14:42:29;;;;;;;8.38;4.12;;;;;;;22.76;26.08;99592.66;4053046;71;43968;-24
2021/03/30 14:53:05;;;;;;;8.80;3.67;;;;;;;22.86;25.68;99579.05;4046687;71;43690;-24
2021/03/30 14:58:19;;;;;;;7.45;4.47;;;;;;;22.86;26.20;99579.05;4014457;71;43393;-24
2021/03/30 15:03:28;;;;;;;6.78;4.20;;;;;;;23.30;24.88;99567.00;4031319;71;43609;-25
2021/03/30 15:08:35;;;;;;;7.67;4.30;;;;;;;23.39;26.07;99565.18;4018386;72;44530;-24
2021/03/30 15:13:43;;;;;;;7.72;4.33;;;;;;;23.30;24.70;99557.38;4031271;72;43183;-24
2021/03/30 15:18:49;;;;;;;6.47;3.95;;;;;;;23.17;24.54;99549.45;4019246;71;44037;-24
2021/03/30 15:23:56;;;;;;;6.62;3.98;;;;;;;22.99;24.30;99548.77;4013173;71;43383;-24
2021/03/30 15:29:02;;;;;;;6.25;4.05;;;;;;;23.53;24.30;99547.25;4008148;71;43126;-24
2021/03/30 15:34:08;;;;;;;5.30;3.60;;;;;;;23.46;25.58;99541.78;4021694;71;44437;-24
2021/03/30 15:39:15;;;;;;;7.20;3.60;;;;;;;23.74;25.85;99534.23;4011202;71;44047;-25
2021/03/30 15:44:28;;;;;;;8.10;3.80;;;;;;;23.58;26.23;99529.54;4037938;72;44491;-25
2021/03/30 15:49:34;;;;;;;5.87;3.50;;;;;;;24.19;25.58;99536.09;4054537;71;44089;-25
2021/03/30 15:54:47;;;;;;;7.42;3.55;;;;;;;23.99;25.01;99542.05;4026333;72;43400;-25
2021/03/30 15:59:52;;;;;;;4.62;3.20;;;;;;;24.00;24.36;99536.85;4035567;72;43435;-25
2021/03/30 16:04:59;;;;;;;5.35;3.15;;;;;;;24.15;24.09;99530.19;4019511;71;44067;-25
2021/03/30 16:10:07;;;;;;;5.53;3.50;;;;;;;24.37;23.97;99533.39;4022246;70;44421;-25
2021/03/30 16:15:14;;;;;;;5.12;3.25;;;;;;;24.33;22.67;99527.18;4066048;71;44021;-25
2021/03/30 16:20:20;;;;;;;7.22;3.37;;;;;;;24.24;24.22;99521.10;3982084;72;43081;-25
2021/03/30 16:25:26;;;;;;;5.85;3.90;;;;;;;24.45;24.57;99524.86;4004782;72;44077;-25
2021/03/30 16:30:33;;;;;;;9.93;3.40;;;;;;;23.96;25.24;99516.33;4027866;72;44173;-25
2021/03/30 16:35:38;;;;;;;5.47;3.40;;;;;;;23.97;26.19;99522.15;4036705;71;43722;-25
2021/03/30 16:40:44;;;;;;;7.08;3.40;;;;;;;23.91;25.89;99518.89;4001521;72;45121;-25
2021/03/30 16:45:50;;;;;;;6.22;3.02;;;;;;;23.69;23.74;99517.01;3989325;71;44046;-26
2021/03/30 16:50:58;;;;;;;6.15;3.08;;;;;;;24.03;25.53;99520.97;4021290;70;44520;-25
2021/03/30 16:56:04;;;;;;;5.33;2.98;;;;;;;24.06;25.35;99516.36;4014948;71;44078;-25
2021/03/30 17:01:10;;;;;;;5.90;2.98;;;;;;;23.62;25.91;99507.41;4019323;71;43354;-25
2021/03/30 17:06:17;;;;;;;5.03;3.08;;;;;;;23.46;26.28;99517.57;4050137;71;44546;-25
2021/03/30 17:11:24;;;;;;;4.05;3.05;;;;;;;23.16;25.75;99508.45;4026452;71;44192;-25
2021/03/30 17:16:31;;;;;;;6.72;3.80;;;;;;;22.82;25.96;99506.33;4041528;71;43724;-25
2021/03/30 17:21:38;;;;;;;11.53;4.87;;;;;;;22.86;25.42;99506.23;4021416;71;44426;-25
2021/03/30 17:26:43;;;;;;;7.78;4.55;;;;;;;22.32;25.91;99507.11;4038738;71;43526;-25
2021/03/30 17:31:49;;;;;;;7.97;5.05;;;;;;;21.71;27.25;99503.97;4047793;71;44007;-24
2021/03/30 17:36:57;;;;;;;8.30;4.87;;;;;;;21.36;27.25;99504.05;4044717;71;44037;-25
2021/03/30 17:42:06;;;;;;;7.75;4.60;;;;;;;20.97;27.82;99500.11;4049942;71;44149;-25
2021/03/30 17:47:12;;;;;;;7.83;4.50;;;;;;;20.68;28.08;99500.13;4033125;71;43349;-23
2021/03/30 17:52:18;;;;;;;7.70;4.60;;;;;;;20.39;27.81;99500.66;4033492;72;44022;-23
2021/03/30 17:57:26;;;;;;;9.38;5.20;;;;;;;19.88;29.83;99506.30;4014304;71;43383;-25
2021/03/30 18:02:33;;;;;;;8.65;5.47;;;;;;;19.27;31.41;99500.16;3996372;71;44014;-25
2021/03/30 18:07:40;;;;;;;10.53;5.17;;;;;;;18.75;32.20;99498.73;4005966;72;43464;-24
2021/03/30 18:12:49;;;;;;;9.65;4.67;;;;;;;18.36;32.72;99497.59;3970949;72;43289;-25
2021/03/30 18:17:59;;;;;;;8.33;5.10;;;;;;;17.93;31.91;99504.95;3966681;72;43747;-24
2021/03/30 18:23:06;;;;;;;7.75;4.97;;;;;;;17.56;33.01;99503.31;3973954;72;43079;-24
2021/03/30 18:28:12;;;;;;;10.45;5.28;;;;;;;17.40;33.53;99497.45;3998455;70;43702;-24
2021/03/30 18:33:19;;;;;;;9.63;5.78;;;;;;;17.37;33.49;99495.08;4004310;71;43442;-23
2021/03/30 18:38:25;;;;;;;8.45;4.53;;;;;;;17.22;33.45;99491.78;4019825;71;44080;-24
2021/03/30 18:43:31;;;;;;;8.75;5.30;;;;;;;16.93;33.59;99494.59;4011118;71;43402;-25
2021/03/30 18:48:37;;;;;;;10.30;5.70;;;;;;;16.56;34.95;99497.95;3971600;72;43730;-25
2021/03/30 18:53:44;;;;;;;8.80;5.15;;;;;;;16.43;35.64;99496.61;3992614;72;43328;-24
2021/03/30 18:58:53;;;;;;;8.83;6.08;;;;;;;16.25;36.15;99491.86;4037258;70;43373;-24
2021/03/30 19:03:58;;;;;;;8.40;4.85;;;;;;;16.12;36.13;99495.11;4047208;72;44165;-24
2021/03/30 19:09:05;;;;;;;10.30;6.17;;;;;;;15.82;36.96;99495.59;4028349;71;44079;-24
2021/03/30 19:14:13;;;;;;;10.65;5.60;;;;;;;15.29;37.67;99494.16;4027573;70;43665;-24
2021/03/30 19:19:19;;;;;;;8.23;4.83;;;;;;;14.89;38.05;99484.33;3978424;72;44008;-24
2021/03/30 19:24:26;;;;;;;9.63;4.33;;;;;;;14.95;37.28;99480.98;3992947;72;44041;-24
2021/03/30 19:29:33;;;;;;;9.30;5.03;;;;;;;14.90;36.71;99488.73;3975168;72;44466;-24
2021/03/30 19:34:43;;;;;;;9.10;4.15;;;;;;;14.90;36.11;99478.75;3995155;72;44041;-24
2021/03/30 19:39:46;;;;;;;8.70;4.45;;;;;;;14.95;35.58;99482.33;3988282;72;43684;-24
2021/03/30 19:44:54;;;;;;;6.72;4.10;;;;;;;14.76;36.17;99481.55;4017616;72;44031;-24
2021/03/30 19:50:01;;;;;;;5.85;3.90;;;;;;;14.59;36.78;99478.40;4046295;70;44030;-24
2021/03/30 19:55:11;;;;;;;7.67;4.10;;;;;;;14.29;37.79;99472.45;4060067;71;43704;-25
2021/03/30 20:00:22;;;;;;;6.60;3.80;;;;;;;14.09;37.55;99477.24;4051645;71;43350;-24
2021/03/30 20:05:28;;;;;;;7.45;4.20;;;;;;;13.80;39.06;99480.58;4052679;71;43404;-24
2021/03/30 20:10:36;;;;;;;7.28;4.35;;;;;;;13.32;40.75;99479.91;3994053;71;44106;-24
2021/03/30 20:15:43;;;;;;;6.17;4.42;;;;;;;13.20;41.11;99484.70;4012863;72;43362;-24
2021/03/30 20:20:49;;;;;;;6.90;4.28;;;;;;;12.72;42.66;99482.58;4015484;72;43729;-24
2021/03/30 20:25:56;;;;;;;9.65;4.08;;;;;;;12.42;42.20;99487.27;4041957;71;43327;-24
2021/03/30 20:31:02;;;;;;;8.00;4.08;;;;;;;12.59;41.08;99487.47;3989897;71;43740;-24
2021/03/30 20:36:10;;;;;;;10.58;4.10;;;;;;;12.76;40.17;99488.05;3994569;71;43683;-25
2021/03/30 20:41:18;;;;;;;5.40;3.77;;;;;;;12.94;38.48;99486.76;4054756;71;43147;-24
2021/03/30 20:46:24;;;;;;;6.87;3.80;;;;;;;13.01;38.80;99483.44;4064686;72;43699;-24
2021/03/30 20:51:33;;;;;;;7.17;4.15;;;;;;;13.06;38.52;99480.63;4042427;71;43999;-24
2021/03/30 20:56:41;;;;;;;10.08;4.10;;;;;;;13.13;38.22;99476.81;4069765;72;44073;-24
2021/03/30 21:01:48;;;;;;;6.65;4.22;;;;;;;13.17;38.25;99483.64;4023367;71;43453;-24
2021/03/30 21:06:54;;;;;;;10.88;4.70;;;;;;;13.22;38.14;99482.69;3978313;72;43732;-24
2021/03/30 21:12:03;;;;;;;9.55;4.42;;;;;;;13.29;38.11;99478.01;3989846;72;43685;-24
2021/03/30 21:17:10;;;;;;;5.72;4.10;;;;;;;13.29;38.10;99469.89;4056267;71;44030;-24
2021/03/30 21:22:17;;;;;;;6.55;4.00;;;;;;;13.25;38.00;99472.89;4045274;71;43682;-24
2021/03/30 21:27:23;;;;;;;7.40;4.35;;;;;;;13.07;38.82;99467.45;4050659;70;44137;-24
2021/03/30 21:32:29;;;;;;;10.13;4.92;;;;;;;12.98;38.56;99464.31;4052955;70;44015;-24
2021/03/30 21:37:35;;;;;;;6.67;4.05;;;;;;;13.07;38.57;99463.91;4018876;72;42728;-24
2021/03/30 21:42:42;;;;;;;7.87;4.70;;;;;;;13.02;38.81;99460.80;3995454;72;44598;-24
2021/03/30 21:47:48;;;;;;;7.22;4.58;;;;;;;12.91;39.29;99457.30;4024425;72;43713;-24
2021/03/30 21:52:56;;;;;;;8.95;4.37;;;;;;;12.84;39.64;99453.50;4050603;71;44059;-24
2021/03/30 21:58:03;;;;;;;6.92;4.30;;;;;;;12.72;40.11;99450.64;4022663;71;43726;-24
2021/03/30 22:03:09;;;;;;;8.53;4.20;;;;;;;12.54;40.84;99444.66;3978283;72;43682;-24
2021/03/30 22:08:15;;;;;;;7.20;4.12;;;;;;;12.39;41.57;99442.12;3970946;72;43506;-24
2021/03/30 22:13:23;;;;;;;9.40;4.28;;;;;;;12.29;42.19;99445.67;3974557;72;44067;-24
2021/03/30 22:18:32;;;;;;;6.45;4.28;;;;;;;12.14;42.62;99441.25;3978211;72;44050;-24
2021/03/30 22:23:40;;;;;;;7.65;4.40;;;;;;;12.04;42.94;99432.84;3984792;72;43714;-24
2021/03/30 22:28:48;;;;;;;6.58;4.33;;;;;;;11.94;42.91;99433.65;4057341;71;43303;-24
2021/03/30 22:33:53;;;;;;;6.45;4.20;;;;;;;11.92;42.89;99441.55;4013756;71;44398;-24
2021/03/30 22:38:59;;;;;;;8.18;4.30;;;;;;;11.86;42.97;99441.63;4032800;71;43607;-24
2021/03/30 22:44:08;;;;;;;10.25;4.25;;;;;;;11.81;43.11;99434.48;3903336;73;44665;-24
2021/03/30 22:49:14;;;;;;;8.85;4.28;;;;;;;11.64;43.50;99436.06;3957091;73;43409;-24
2021/03/30 22:54:20;;;;;;;8.23;3.92;;;;;;;11.55;43.72;99446.70;3944219;73;44073;-24
2021/03/30 22:59:26;;;;;;;7.22;4.15;;;;;;;11.49;43.77;99439.67;4019362;71;43686;-24
2021/03/30 23:04:31;;;;;;;9.53;4.22;;;;;;;11.44;44.01;99434.70;3979591;72;43497;-24
2021/03/30 23:09:38;;;;;;;8.90;4.30;;;;;;;11.37;44.32;99435.77;3964905;72;43678;-24
2021/03/30 23:14:44;;;;;;;9.78;4.55;;;;;;;11.23;44.97;99432.99;4024052;72;44056;-24
2021/03/30 23:19:50;;;;;;;7.58;4.47;;;;;;;11.04;45.45;99425.73;3993283;72;43361;-24
2021/03/30 23:24:56;;;;;;;7.40;4.80;;;;;;;10.84;45.96;99423.98;4015715;72;43322;-24
2021/03/30 23:30:02;;;;;;;7.50;4.37;;;;;;;10.67;46.28;99423.66;4056122;71;44047;-24
2021/03/30 23:35:12;;;;;;;10.13;5.17;;;;;;;10.55;46.18;99420.70;4059077;70;44109;-24
2021/03/30 23:40:20;;;;;;;9.40;4.92;;;;;;;10.52;45.90;99410.22;4021286;71;43690;-23
2021/03/30 23:45:26;;;;;;;6.83;3.85;;;;;;;10.52;45.84;99415.61;4022487;71;44208;-24
2021/03/30 23:50:32;;;;;;;7.10;3.92;;;;;;;10.44;46.00;99413.08;4021715;72;44468;-24
2021/03/30 23:55:37;;;;;;;5.90;4.20;;;;;;;10.49;45.88;99418.06;3981266;72;44011;-23
